Ana Sayfa
METAR-TAF:

METAR-TAF

Havaalanları :

Wagga Wagga, Avustralya

Enlem: 35-09S, Boylam: 147-27E, yükseklik: 221 m

Güncel hava durumu gözlemi

Rapor saat 13:00 UTC de 1 saat ve 13 dakika önce yapıldı.
Rüzgar doğu/kuzeydoğudan 4 kt
Sıcaklık 20°C
Nem 28%
Basınç 1017 hPa
Görüş mesafesi 10 km veya daha fazla

METAR: YSWG 081300Z AUTO 06004KT 9999 // NCD 20/01 Q1017

Saat: 01:13 (14:13 UTC)


TAF: eksik

4.000'den fazla havaalanı için hava durumu gözlemleri ve tahminleri (METAR ve TAF raporları).

Kullanılabilir istasyonlar harita üzerinde sarı ve kırmızı noktalarla gösterilir.

İstasyonun adını görmek için fareyi noktanın üzerinde gezdirin.

Sonrasında hava gözlem ve tahminlerini görmek için tıklayın.

Haritayı değiştirmek için: yaklaştırmak için siyah artı işaretli yeşil düğmeye ve uzaklaştırmak için de eksi işaretli düğmeye hızla tıklayın; bitişik haritalar için yeşil okları kullanın.


METAR-TAF: